sensor_id;sensor_type;location;lat;lon;timestamp;pressure;altitude;pressure_sealevel;temperature;humidity
19751;BME280;4663;49.120;9.730;2023-11-21T00:02:24;97457.78;;;10.61;78.38
19751;BME280;4663;49.120;9.730;2023-11-21T00:04:50;97460.06;;;10.15;79.13
19751;BME280;4663;49.120;9.730;2023-11-21T00:07:15;97465.13;;;9.85;79.99
19751;BME280;4663;49.120;9.730;2023-11-21T00:09:41;97459.94;;;9.92;80.10
19751;BME280;4663;49.120;9.730;2023-11-21T00:12:07;97468.75;;;10.18;79.91
19751;BME280;4663;49.120;9.730;2023-11-21T00:14:38;97466.47;;;9.73;80.38
19751;BME280;4663;49.120;9.730;2023-11-21T00:17:03;97463.25;;;10.11;79.89
19751;BME280;4663;49.120;9.730;2023-11-21T00:19:29;97452.13;;;10.31;80.10
19751;BME280;4663;49.120;9.730;2023-11-21T00:21:54;97451.44;;;10.53;79.05
19751;BME280;4663;49.120;9.730;2023-11-21T00:24:20;97453.19;;;10.21;79.16
19751;BME280;4663;49.120;9.730;2023-11-21T00:26:45;97450.13;;;10.33;79.00
19751;BME280;4663;49.120;9.730;2023-11-21T00:29:11;97451.91;;;9.84;79.39
19751;BME280;4663;49.120;9.730;2023-11-21T00:31:36;97460.09;;;9.99;80.57
19751;BME280;4663;49.120;9.730;2023-11-21T00:34:03;97454.72;;;10.07;79.54
19751;BME280;4663;49.120;9.730;2023-11-21T00:36:31;97451.16;;;10.23;79.13
19751;BME280;4663;49.120;9.730;2023-11-21T00:38:56;97449.63;;;10.29;79.75
19751;BME280;4663;49.120;9.730;2023-11-21T00:41:22;97446.75;;;10.39;79.18
19751;BME280;4663;49.120;9.730;2023-11-21T00:43:47;97449.88;;;9.94;79.64
19751;BME280;4663;49.120;9.730;2023-11-21T00:46:12;97446.75;;;10.39;78.86
19751;BME280;4663;49.120;9.730;2023-11-21T00:48:38;97437.00;;;10.55;78.42
19751;BME280;4663;49.120;9.730;2023-11-21T00:51:04;97442.09;;;10.33;79.21
19751;BME280;4663;49.120;9.730;2023-11-21T00:53:31;97451.66;;;10.27;79.54
19751;BME280;4663;49.120;9.730;2023-11-21T00:55:56;97453.00;;;10.31;79.40
19751;BME280;4663;49.120;9.730;2023-11-21T00:58:25;97443.41;;;10.37;78.93
19751;BME280;4663;49.120;9.730;2023-11-21T01:00:51;97446.06;;;9.80;79.99
19751;BME280;4663;49.120;9.730;2023-11-21T01:03:16;97440.03;;;10.43;79.23
19751;BME280;4663;49.120;9.730;2023-11-21T01:05:42;97440.59;;;10.30;78.84
19751;BME280;4663;49.120;9.730;2023-11-21T01:08:07;97448.47;;;10.32;79.73
19751;BME280;4663;49.120;9.730;2023-11-21T01:10:32;97444.75;;;10.41;79.41
19751;BME280;4663;49.120;9.730;2023-11-21T01:12:59;97438.88;;;10.46;78.92
19751;BME280;4663;49.120;9.730;2023-11-21T01:15:25;97450.41;;;10.46;78.83
19751;BME280;4663;49.120;9.730;2023-11-21T01:17:51;97454.13;;;10.45;78.92
19751;BME280;4663;49.120;9.730;2023-11-21T01:20:17;97445.72;;;10.57;78.40
19751;BME280;4663;49.120;9.730;2023-11-21T01:22:42;97452.09;;;10.56;78.40
19751;BME280;4663;49.120;9.730;2023-11-21T01:25:08;97444.38;;;10.61;77.88
19751;BME280;4663;49.120;9.730;2023-11-21T01:27:34;97443.00;;;10.65;77.75
19751;BME280;4663;49.120;9.730;2023-11-21T01:30:00;97453.56;;;10.01;79.40
19751;BME280;4663;49.120;9.730;2023-11-21T01:32:26;97453.44;;;9.78;79.45
19751;BME280;4663;49.120;9.730;2023-11-21T01:34:51;97444.44;;;10.36;78.91
19751;BME280;4663;49.120;9.730;2023-11-21T01:37:17;97442.16;;;10.16;79.88
19751;BME280;4663;49.120;9.730;2023-11-21T01:39:43;97433.91;;;10.26;79.15
19751;BME280;4663;49.120;9.730;2023-11-21T01:42:09;97447.22;;;9.86;79.89
19751;BME280;4663;49.120;9.730;2023-11-21T01:44:34;97439.81;;;10.13;79.68
19751;BME280;4663;49.120;9.730;2023-11-21T01:47:01;97433.50;;;10.37;78.97
19751;BME280;4663;49.120;9.730;2023-11-21T01:49:32;97431.69;;;10.38;79.20
19751;BME280;4663;49.120;9.730;2023-11-21T01:51:58;97434.97;;;10.00;80.20
19751;BME280;4663;49.120;9.730;2023-11-21T01:54:24;97425.22;;;10.15;79.10
19751;BME280;4663;49.120;9.730;2023-11-21T01:56:50;97440.16;;;10.10;79.21
19751;BME280;4663;49.120;9.730;2023-11-21T01:59:19;97433.75;;;10.19;79.10
19751;BME280;4663;49.120;9.730;2023-11-21T02:01:46;97434.72;;;10.26;78.90
19751;BME280;4663;49.120;9.730;2023-11-21T02:04:12;97442.91;;;10.33;78.91
19751;BME280;4663;49.120;9.730;2023-11-21T02:06:38;97438.69;;;10.56;78.31
19751;BME280;4663;49.120;9.730;2023-11-21T02:09:04;97443.78;;;10.25;79.12
19751;BME280;4663;49.120;9.730;2023-11-21T02:11:30;97445.84;;;9.98;79.86
19751;BME280;4663;49.120;9.730;2023-11-21T02:13:56;97443.13;;;10.15;79.57
19751;BME280;4663;49.120;9.730;2023-11-21T02:16:24;97435.59;;;10.27;79.24
19751;BME280;4663;49.120;9.730;2023-11-21T02:18:51;97447.16;;;10.11;79.60
19751;BME280;4663;49.120;9.730;2023-11-21T02:21:17;97436.97;;;10.14;79.71
19751;BME280;4663;49.120;9.730;2023-11-21T02:23:42;97438.84;;;9.89;79.70
19751;BME280;4663;49.120;9.730;2023-11-21T02:26:10;97437.16;;;10.05;79.65
19751;BME280;4663;49.120;9.730;2023-11-21T02:28:36;97430.66;;;10.39;79.21
19751;BME280;4663;49.120;9.730;2023-11-21T02:31:01;97431.75;;;10.21;79.37
19751;BME280;4663;49.120;9.730;2023-11-21T02:33:28;97432.78;;;9.95;80.03
19751;BME280;4663;49.120;9.730;2023-11-21T02:35:54;97426.72;;;10.18;79.60
19751;BME280;4663;49.120;9.730;2023-11-21T02:38:21;97423.56;;;10.14;79.14
19751;BME280;4663;49.120;9.730;2023-11-21T02:40:46;97434.44;;;10.13;80.04
19751;BME280;4663;49.120;9.730;2023-11-21T02:43:12;97435.78;;;10.17;80.06
19751;BME280;4663;49.120;9.730;2023-11-21T02:45:37;97439.16;;;10.02;80.19
19751;BME280;4663;49.120;9.730;2023-11-21T02:48:03;97431.66;;;9.81;80.61
19751;BME280;4663;49.120;9.730;2023-11-21T02:50:29;97430.50;;;10.40;79.44
19751;BME280;4663;49.120;9.730;2023-11-21T02:52:55;97421.47;;;10.33;78.82
19751;BME280;4663;49.120;9.730;2023-11-21T02:55:22;97421.50;;;10.25;79.38
19751;BME280;4663;49.120;9.730;2023-11-21T02:57:50;97416.78;;;10.35;79.18
19751;BME280;4663;49.120;9.730;2023-11-21T03:00:16;97422.28;;;10.42;78.77
19751;BME280;4663;49.120;9.730;2023-11-21T03:02:42;97428.59;;;10.01;79.79
19751;BME280;4663;49.120;9.730;2023-11-21T03:05:07;97421.25;;;10.51;78.67
19751;BME280;4663;49.120;9.730;2023-11-21T03:07:38;97414.22;;;10.50;78.63
19751;BME280;4663;49.120;9.730;2023-11-21T03:10:04;97420.91;;;10.55;78.20
19751;BME280;4663;49.120;9.730;2023-11-21T03:12:30;97420.47;;;10.34;79.35
19751;BME280;4663;49.120;9.730;2023-11-21T03:14:55;97428.06;;;10.14;80.15
19751;BME280;4663;49.120;9.730;2023-11-21T03:17:21;97428.75;;;10.16;79.36
19751;BME280;4663;49.120;9.730;2023-11-21T03:19:46;97427.50;;;10.35;79.31
19751;BME280;4663;49.120;9.730;2023-11-21T03:22:11;97427.69;;;10.34;79.04
19751;BME280;4663;49.120;9.730;2023-11-21T03:24:37;97428.78;;;10.56;78.98
19751;BME280;4663;49.120;9.730;2023-11-21T03:27:04;97432.06;;;10.18;78.94
19751;BME280;4663;49.120;9.730;2023-11-21T03:29:29;97424.69;;;10.69;78.23
19751;BME280;4663;49.120;9.730;2023-11-21T03:31:54;97432.59;;;10.22;79.23
19751;BME280;4663;49.120;9.730;2023-11-21T03:34:25;97428.38;;;10.19;79.07
19751;BME280;4663;49.120;9.730;2023-11-21T03:36:51;97436.47;;;10.02;80.28
19751;BME280;4663;49.120;9.730;2023-11-21T03:39:17;97437.75;;;10.32;79.61
19751;BME280;4663;49.120;9.730;2023-11-21T03:41:43;97432.41;;;10.15;79.92
19751;BME280;4663;49.120;9.730;2023-11-21T03:44:08;97427.53;;;10.27;79.05
19751;BME280;4663;49.120;9.730;2023-11-21T03:46:33;97432.38;;;10.32;79.22
19751;BME280;4663;49.120;9.730;2023-11-21T03:48:59;97428.00;;;10.31;78.74
19751;BME280;4663;49.120;9.730;2023-11-21T03:51:24;97421.94;;;10.45;78.95
19751;BME280;4663;49.120;9.730;2023-11-21T03:53:49;97411.94;;;10.31;78.85
19751;BME280;4663;49.120;9.730;2023-11-21T03:56:15;97425.00;;;10.34;79.33
19751;BME280;4663;49.120;9.730;2023-11-21T03:58:40;97419.66;;;10.25;79.47
19751;BME280;4663;49.120;9.730;2023-11-21T04:01:06;97414.31;;;10.25;79.76
19751;BME280;4663;49.120;9.730;2023-11-21T04:03:31;97424.56;;;10.05;79.82
19751;BME280;4663;49.120;9.730;2023-11-21T04:05:56;97417.66;;;10.19;79.95
19751;BME280;4663;49.120;9.730;2023-11-21T04:08:22;97424.91;;;10.10;79.82
19751;BME280;4663;49.120;9.730;2023-11-21T04:10:47;97424.53;;;10.22;79.67
19751;BME280;4663;49.120;9.730;2023-11-21T04:13:13;97425.34;;;10.31;79.33
19751;BME280;4663;49.120;9.730;2023-11-21T04:15:39;97435.44;;;10.20;79.47
19751;BME280;4663;49.120;9.730;2023-11-21T04:18:04;97425.47;;;10.54;78.65
19751;BME280;4663;49.120;9.730;2023-11-21T04:20:30;97425.19;;;10.24;79.16
19751;BME280;4663;49.120;9.730;2023-11-21T04:22:55;97439.19;;;9.78;80.34
19751;BME280;4663;49.120;9.730;2023-11-21T04:25:20;97435.75;;;10.25;79.77
19751;BME280;4663;49.120;9.730;2023-11-21T04:27:48;97429.63;;;10.57;78.51
19751;BME280;4663;49.120;9.730;2023-11-21T04:30:14;97428.97;;;10.46;79.41
19751;BME280;4663;49.120;9.730;2023-11-21T04:32:40;97440.75;;;10.37;79.17
19751;BME280;4663;49.120;9.730;2023-11-21T04:35:07;97440.59;;;10.30;79.24
19751;BME280;4663;49.120;9.730;2023-11-21T04:37:33;97441.44;;;10.22;79.96
19751;BME280;4663;49.120;9.730;2023-11-21T04:39:59;97445.75;;;10.40;79.07
19751;BME280;4663;49.120;9.730;2023-11-21T04:42:24;97438.25;;;10.27;79.47
19751;BME280;4663;49.120;9.730;2023-11-21T04:44:49;97439.44;;;10.24;79.18
19751;BME280;4663;49.120;9.730;2023-11-21T04:47:15;97443.97;;;10.15;79.87
19751;BME280;4663;49.120;9.730;2023-11-21T04:49:43;97448.91;;;10.44;79.42
19751;BME280;4663;49.120;9.730;2023-11-21T04:52:12;97452.09;;;10.56;78.74
19751;BME280;4663;49.120;9.730;2023-11-21T04:54:37;97447.44;;;10.49;79.27
19751;BME280;4663;49.120;9.730;2023-11-21T04:57:03;97463.25;;;10.11;79.84
19751;BME280;4663;49.120;9.730;2023-11-21T04:59:30;97455.50;;;10.33;79.88
19751;BME280;4663;49.120;9.730;2023-11-21T05:01:55;97459.81;;;10.42;79.69
19751;BME280;4663;49.120;9.730;2023-11-21T05:04:20;97463.66;;;10.48;79.08
19751;BME280;4663;49.120;9.730;2023-11-21T05:06:47;97463.81;;;10.46;79.55
19751;BME280;4663;49.120;9.730;2023-11-21T05:09:13;97463.34;;;10.43;79.46
19751;BME280;4663;49.120;9.730;2023-11-21T05:11:38;97469.59;;;10.18;79.97
19751;BME280;4663;49.120;9.730;2023-11-21T05:14:06;97470.63;;;10.09;80.40
19751;BME280;4663;49.120;9.730;2023-11-21T05:16:31;97479.28;;;10.27;80.32
19751;BME280;4663;49.120;9.730;2023-11-21T05:18:57;97476.09;;;10.32;79.91
19751;BME280;4663;49.120;9.730;2023-11-21T05:21:29;97488.09;;;9.88;81.21
19751;BME280;4663;49.120;9.730;2023-11-21T05:23:58;97489.19;;;10.27;80.44
19751;BME280;4663;49.120;9.730;2023-11-21T05:26:23;97480.09;;;10.53;79.57
19751;BME280;4663;49.120;9.730;2023-11-21T05:28:48;97477.56;;;10.51;79.35
19751;BME280;4663;49.120;9.730;2023-11-21T05:31:14;97485.28;;;10.46;79.38
19751;BME280;4663;49.120;9.730;2023-11-21T05:33:40;97492.69;;;10.36;79.46
19751;BME280;4663;49.120;9.730;2023-11-21T05:36:07;97498.41;;;10.33;79.82
19751;BME280;4663;49.120;9.730;2023-11-21T05:38:33;97501.47;;;10.05;80.34
19751;BME280;4663;49.120;9.730;2023-11-21T05:40:58;97498.75;;;10.13;80.01
19751;BME280;4663;49.120;9.730;2023-11-21T05:43:24;97497.03;;;10.53;79.18
19751;BME280;4663;49.120;9.730;2023-11-21T05:45:49;97501.22;;;10.39;79.48
19751;BME280;4663;49.120;9.730;2023-11-21T05:48:15;97506.84;;;9.88;81.09
19751;BME280;4663;49.120;9.730;2023-11-21T05:50:41;97494.31;;;10.62;78.77
19751;BME280;4663;49.120;9.730;2023-11-21T05:53:06;97499.59;;;10.13;79.96
19751;BME280;4663;49.120;9.730;2023-11-21T05:55:32;97503.22;;;10.46;79.25
19751;BME280;4663;49.120;9.730;2023-11-21T05:57:58;97510.50;;;10.20;80.47
19751;BME280;4663;49.120;9.730;2023-11-21T06:00:23;97511.34;;;9.87;80.76
19751;BME280;4663;49.120;9.730;2023-11-21T06:02:51;97515.84;;;10.04;80.75
19751;BME280;4663;49.120;9.730;2023-11-21T06:05:19;97509.16;;;10.16;80.30
19751;BME280;4663;49.120;9.730;2023-11-21T06:07:45;97507.06;;;10.43;79.75
19751;BME280;4663;49.120;9.730;2023-11-21T06:10:11;97507.56;;;10.55;79.48
19751;BME280;4663;49.120;9.730;2023-11-21T06:12:40;97518.50;;;10.37;80.01
19751;BME280;4663;49.120;9.730;2023-11-21T06:15:08;97521.16;;;10.53;79.42
19751;BME280;4663;49.120;9.730;2023-11-21T06:17:35;97525.69;;;10.36;80.20
19751;BME280;4663;49.120;9.730;2023-11-21T06:20:05;97522.78;;;10.63;79.04
19751;BME280;4663;49.120;9.730;2023-11-21T06:22:35;97520.06;;;10.71;78.55
19751;BME280;4663;49.120;9.730;2023-11-21T06:25:01;97513.75;;;10.64;78.52
19751;BME280;4663;49.120;9.730;2023-11-21T06:27:26;97523.88;;;9.95;80.23
19751;BME280;4663;49.120;9.730;2023-11-21T06:29:51;97526.91;;;10.09;80.24
19751;BME280;4663;49.120;9.730;2023-11-21T06:32:17;97523.25;;;9.85;80.10
19751;BME280;4663;49.120;9.730;2023-11-21T06:34:42;97525.88;;;9.60;80.26
19751;BME280;4663;49.120;9.730;2023-11-21T06:37:08;97537.63;;;9.59;80.68
19751;BME280;4663;49.120;9.730;2023-11-21T06:39:34;97526.53;;;9.29;81.39
19751;BME280;4663;49.120;9.730;2023-11-21T06:42:00;97539.06;;;9.28;81.77
19751;BME280;4663;49.120;9.730;2023-11-21T06:44:26;97540.63;;;9.56;80.73
19751;BME280;4663;49.120;9.730;2023-11-21T06:46:51;97547.00;;;9.03;81.98
19751;BME280;4663;49.120;9.730;2023-11-21T06:49:17;97545.66;;;9.59;81.18
19751;BME280;4663;49.120;9.730;2023-11-21T06:51:42;97548.34;;;9.67;80.96
19751;BME280;4663;49.120;9.730;2023-11-21T06:54:07;97549.03;;;9.78;80.67
19751;BME280;4663;49.120;9.730;2023-11-21T06:56:33;97547.84;;;10.05;79.88
19751;BME280;4663;49.120;9.730;2023-11-21T06:58:58;97546.13;;;10.29;79.08
19751;BME280;4663;49.120;9.730;2023-11-21T07:01:23;97564.75;;;9.81;80.23
19751;BME280;4663;49.120;9.730;2023-11-21T07:03:49;97561.25;;;9.97;80.36
19751;BME280;4663;49.120;9.730;2023-11-21T07:06:15;97568.28;;;10.06;80.18
19751;BME280;4663;49.120;9.730;2023-11-21T07:08:40;97572.28;;;9.85;80.33
19751;BME280;4663;49.120;9.730;2023-11-21T07:11:06;97573.47;;;10.33;79.83
19751;BME280;4663;49.120;9.730;2023-11-21T07:13:32;97575.31;;;10.24;79.84
19751;BME280;4663;49.120;9.730;2023-11-21T07:15:58;97573.94;;;10.36;79.86
19751;BME280;4663;49.120;9.730;2023-11-21T07:18:24;97579.47;;;10.51;79.70
19751;BME280;4663;49.120;9.730;2023-11-21T07:20:49;97573.44;;;10.41;79.67
19751;BME280;4663;49.120;9.730;2023-11-21T07:23:15;97584.50;;;10.55;79.00
19751;BME280;4663;49.120;9.730;2023-11-21T07:25:41;97586.13;;;10.81;79.12
19751;BME280;4663;49.120;9.730;2023-11-21T07:28:08;97588.13;;;10.78;78.81
19751;BME280;4663;49.120;9.730;2023-11-21T07:30:33;97593.22;;;10.57;78.79
19751;BME280;4663;49.120;9.730;2023-11-21T07:32:59;97592.38;;;10.56;79.96
19751;BME280;4663;49.120;9.730;2023-11-21T07:35:24;97596.72;;;10.57;79.87
19751;BME280;4663;49.120;9.730;2023-11-21T07:37:49;97599.69;;;10.87;79.33
19751;BME280;4663;49.120;9.730;2023-11-21T07:40:15;97606.75;;;10.80;78.75
19751;BME280;4663;49.120;9.730;2023-11-21T07:42:42;97606.56;;;10.90;79.25
19751;BME280;4663;49.120;9.730;2023-11-21T07:45:08;97608.97;;;10.51;80.10
19751;BME280;4663;49.120;9.730;2023-11-21T07:47:34;97615.22;;;11.09;78.29
19751;BME280;4663;49.120;9.730;2023-11-21T07:50:00;97615.53;;;11.14;78.09
19751;BME280;4663;49.120;9.730;2023-11-21T07:52:28;97622.97;;;11.03;78.83
19751;BME280;4663;49.120;9.730;2023-11-21T07:54:53;97627.47;;;11.03;78.84
19751;BME280;4663;49.120;9.730;2023-11-21T07:57:18;97626.22;;;10.82;78.82
19751;BME280;4663;49.120;9.730;2023-11-21T07:59:44;97622.09;;;11.11;78.52
19751;BME280;4663;49.120;9.730;2023-11-21T08:02:09;97622.91;;;11.20;78.24
19751;BME280;4663;49.120;9.730;2023-11-21T08:04:35;97627.38;;;10.88;78.67
19751;BME280;4663;49.120;9.730;2023-11-21T08:07:01;97621.56;;;11.16;78.55
19751;BME280;4663;49.120;9.730;2023-11-21T08:09:27;97620.19;;;11.28;77.70
19751;BME280;4663;49.120;9.730;2023-11-21T08:11:52;97621.84;;;11.29;78.08
19751;BME280;4663;49.120;9.730;2023-11-21T08:14:18;97619.88;;;11.23;78.68
19751;BME280;4663;49.120;9.730;2023-11-21T08:16:44;97630.38;;;10.85;79.34
19751;BME280;4663;49.120;9.730;2023-11-21T08:19:10;97633.72;;;10.87;79.67
19751;BME280;4663;49.120;9.730;2023-11-21T08:21:36;97628.53;;;10.94;79.15
19751;BME280;4663;49.120;9.730;2023-11-21T08:24:03;97632.09;;;10.69;80.19
19751;BME280;4663;49.120;9.730;2023-11-21T08:26:29;97623.44;;;11.07;78.95
19751;BME280;4663;49.120;9.730;2023-11-21T08:28:55;97624.53;;;10.89;79.57
19751;BME280;4663;49.120;9.730;2023-11-21T08:31:25;97627.16;;;11.06;78.88
19751;BME280;4663;49.120;9.730;2023-11-21T08:33:51;97633.63;;;11.20;78.99
19751;BME280;4663;49.120;9.730;2023-11-21T08:36:16;97627.22;;;11.29;78.50
19751;BME280;4663;49.120;9.730;2023-11-21T08:38:41;97626.78;;;11.49;77.90
19751;BME280;4663;49.120;9.730;2023-11-21T08:41:07;97634.75;;;11.34;78.41
19751;BME280;4663;49.120;9.730;2023-11-21T08:43:36;97644.13;;;11.38;78.74
19751;BME280;4663;49.120;9.730;2023-11-21T08:46:06;97645.81;;;11.39;78.58
19751;BME280;4663;49.120;9.730;2023-11-21T08:48:31;97640.94;;;11.43;78.48
19751;BME280;4663;49.120;9.730;2023-11-21T08:50:57;97639.81;;;11.61;77.85
19751;BME280;4663;49.120;9.730;2023-11-21T08:53:22;97652.53;;;10.78;79.41
19751;BME280;4663;49.120;9.730;2023-11-21T08:55:48;97650.91;;;11.57;78.30
19751;BME280;4663;49.120;9.730;2023-11-21T08:58:15;97648.28;;;11.49;78.44
19751;BME280;4663;49.120;9.730;2023-11-21T09:00:41;97650.91;;;11.57;78.00
19751;BME280;4663;49.120;9.730;2023-11-21T09:03:06;97656.78;;;11.61;78.13
19751;BME280;4663;49.120;9.730;2023-11-21T09:05:37;97651.03;;;12.04;77.12
19751;BME280;4663;49.120;9.730;2023-11-21T09:08:02;97660.09;;;11.72;78.09
19751;BME280;4663;49.120;9.730;2023-11-21T09:10:28;97661.03;;;11.87;78.38
19751;BME280;4663;49.120;9.730;2023-11-21T09:12:53;97661.31;;;12.01;77.72
19751;BME280;4663;49.120;9.730;2023-11-21T09:15:18;97666.06;;;11.90;78.50
19751;BME280;4663;49.120;9.730;2023-11-21T09:17:45;97662.31;;;12.23;77.91
19751;BME280;4663;49.120;9.730;2023-11-21T09:20:11;97672.00;;;12.09;78.90
19751;BME280;4663;49.120;9.730;2023-11-21T09:22:36;97672.97;;;11.85;79.13
19751;BME280;4663;49.120;9.730;2023-11-21T09:25:02;97676.75;;;12.22;78.52
19751;BME280;4663;49.120;9.730;2023-11-21T09:27:33;97684.59;;;12.08;78.22
19751;BME280;4663;49.120;9.730;2023-11-21T09:29:58;97684.13;;;12.05;78.05
19751;BME280;4663;49.120;9.730;2023-11-21T09:32:24;97693.06;;;11.57;78.40
19751;BME280;4663;49.120;9.730;2023-11-21T09:34:49;97688.75;;;11.88;78.20
19751;BME280;4663;49.120;9.730;2023-11-21T09:37:15;97685.03;;;11.57;78.71
19751;BME280;4663;49.120;9.730;2023-11-21T09:39:41;97690.81;;;11.69;79.26
19751;BME280;4663;49.120;9.730;2023-11-21T09:47:07;97687.19;;;11.53;78.16
19751;BME280;4663;49.120;9.730;2023-11-21T09:49:36;97690.72;;;11.94;78.03
19751;BME280;4663;49.120;9.730;2023-11-21T09:52:03;97694.63;;;12.38;77.88
19751;BME280;4663;49.120;9.730;2023-11-21T09:54:29;97694.69;;;12.53;77.02
19751;BME280;4663;49.120;9.730;2023-11-21T09:56:57;97692.91;;;12.45;77.25
19751;BME280;4663;49.120;9.730;2023-11-21T09:59:23;97687.28;;;12.55;76.52
19751;BME280;4663;49.120;9.730;2023-11-21T10:01:49;97690.22;;;12.45;77.47
19751;BME280;4663;49.120;9.730;2023-11-21T10:04:15;97690.44;;;12.59;77.28
19751;BME280;4663;49.120;9.730;2023-11-21T10:06:43;97699.88;;;12.55;78.75
19751;BME280;4663;49.120;9.730;2023-11-21T10:09:12;97691.84;;;12.70;77.55
19751;BME280;4663;49.120;9.730;2023-11-21T10:11:42;97702.97;;;11.56;78.30
19751;BME280;4663;49.120;9.730;2023-11-21T10:14:11;97695.72;;;12.29;77.53
19751;BME280;4663;49.120;9.730;2023-11-21T10:16:39;97700.19;;;11.81;77.30
19751;BME280;4663;49.120;9.730;2023-11-21T10:19:06;97690.44;;;12.12;76.82
19751;BME280;4663;49.120;9.730;2023-11-21T10:21:34;97701.44;;;12.49;77.97
19751;BME280;4663;49.120;9.730;2023-11-21T10:23:59;97690.72;;;11.94;76.79
19751;BME280;4663;49.120;9.730;2023-11-21T10:26:26;97698.22;;;12.92;77.10
19751;BME280;4663;49.120;9.730;2023-11-21T10:28:57;97703.34;;;12.17;76.22
19751;BME280;4663;49.120;9.730;2023-11-21T10:31:23;97705.97;;;12.25;76.81
19751;BME280;4663;49.120;9.730;2023-11-21T10:33:52;97707.16;;;12.46;77.77
19751;BME280;4663;49.120;9.730;2023-11-21T10:36:28;97697.47;;;11.90;76.07
19751;BME280;4663;49.120;9.730;2023-11-21T10:38:54;97705.63;;;12.28;76.24
19751;BME280;4663;49.120;9.730;2023-11-21T10:41:23;97697.97;;;11.93;77.05
19751;BME280;4663;49.120;9.730;2023-11-21T10:43:48;97699.78;;;12.25;76.31
19751;BME280;4663;49.120;9.730;2023-11-21T10:46:14;97707.25;;;12.38;76.36
19751;BME280;4663;49.120;9.730;2023-11-21T10:48:41;97709.81;;;12.31;76.47
19751;BME280;4663;49.120;9.730;2023-11-21T10:51:08;97705.97;;;12.02;75.08
19751;BME280;4663;49.120;9.730;2023-11-21T10:53:38;97710.16;;;12.28;76.43
19751;BME280;4663;49.120;9.730;2023-11-21T10:56:06;97704.88;;;12.81;76.46
19751;BME280;4663;49.120;9.730;2023-11-21T10:58:36;97708.22;;;12.22;75.77
19751;BME280;4663;49.120;9.730;2023-11-21T11:01:06;97705.94;;;12.57;76.44
19751;BME280;4663;49.120;9.730;2023-11-21T11:03:32;97706.91;;;12.79;76.31
19751;BME280;4663;49.120;9.730;2023-11-21T11:05:59;97714.94;;;11.86;77.58
19751;BME280;4663;49.120;9.730;2023-11-21T11:08:24;97708.28;;;11.33;77.21
19751;BME280;4663;49.120;9.730;2023-11-21T11:10:52;97718.53;;;12.10;77.00
19751;BME280;4663;49.120;9.730;2023-11-21T11:13:18;97718.19;;;12.59;77.12
19751;BME280;4663;49.120;9.730;2023-11-21T11:15:47;97710.81;;;12.06;75.85
19751;BME280;4663;49.120;9.730;2023-11-21T11:18:12;97718.41;;;12.26;76.75
19751;BME280;4663;49.120;9.730;2023-11-21T11:20:39;97707.41;;;12.59;75.65
19751;BME280;4663;49.120;9.730;2023-11-21T11:26:01;97717.19;;;12.99;76.82
19751;BME280;4663;49.120;9.730;2023-11-21T11:28:57;97705.97;;;11.62;76.20
19751;BME280;4663;49.120;9.730;2023-11-21T11:34:06;97713.75;;;12.43;76.56
19751;BME280;4663;49.120;9.730;2023-11-21T11:36:44;97706.72;;;12.42;75.73
19751;BME280;4663;49.120;9.730;2023-11-21T11:39:39;97711.13;;;11.72;76.50
19751;BME280;4663;49.120;9.730;2023-11-21T11:42:10;97714.78;;;11.87;77.01
19751;BME280;4663;49.120;9.730;2023-11-21T11:47:27;97706.22;;;12.62;75.84
19751;BME280;4663;49.120;9.730;2023-11-21T11:50:11;97723.19;;;11.36;77.92
19751;BME280;4663;49.120;9.730;2023-11-21T11:52:54;97710.88;;;12.45;75.83
19751;BME280;4663;49.120;9.730;2023-11-21T11:55:24;97722.47;;;11.50;77.75
19751;BME280;4663;49.120;9.730;2023-11-21T11:57:51;97718.63;;;12.16;76.87
19751;BME280;4663;49.120;9.730;2023-11-21T12:00:17;97712.69;;;11.57;76.29
19751;BME280;4663;49.120;9.730;2023-11-21T12:02:48;97722.06;;;11.22;78.23
19751;BME280;4663;49.120;9.730;2023-11-21T12:05:21;97718.09;;;11.98;77.16
19751;BME280;4663;49.120;9.730;2023-11-21T12:07:55;97725.09;;;12.30;76.82
19751;BME280;4663;49.120;9.730;2023-11-21T12:10:24;97732.78;;;11.70;77.63
19751;BME280;4663;49.120;9.730;2023-11-21T12:12:54;97744.91;;;10.92;78.24
19751;BME280;4663;49.120;9.730;2023-11-21T12:15:20;97747.28;;;10.71;79.99
19751;BME280;4663;49.120;9.730;2023-11-21T12:17:47;97750.81;;;10.88;79.93
19751;BME280;4663;49.120;9.730;2023-11-21T12:20:15;97757.09;;;10.20;80.38
19751;BME280;4663;49.120;9.730;2023-11-21T12:22:43;97762.47;;;10.37;81.21
19751;BME280;4663;49.120;9.730;2023-11-21T12:25:09;97756.16;;;10.55;80.05
19751;BME280;4663;49.120;9.730;2023-11-21T12:27:35;97759.50;;;10.48;80.85
19751;BME280;4663;49.120;9.730;2023-11-21T12:30:00;97751.47;;;10.73;80.61
19751;BME280;4663;49.120;9.730;2023-11-21T12:32:26;97765.81;;;10.47;80.61
19751;BME280;4663;49.120;9.730;2023-11-21T12:34:52;97766.88;;;11.04;79.53
19751;BME280;4663;49.120;9.730;2023-11-21T12:37:17;97762.34;;;11.22;79.33
19751;BME280;4663;49.120;9.730;2023-11-21T12:39:43;97765.53;;;10.75;79.61
19751;BME280;4663;49.120;9.730;2023-11-21T12:42:09;97762.88;;;10.92;81.05
19751;BME280;4663;49.120;9.730;2023-11-21T12:44:35;97782.34;;;10.09;81.90
19751;BME280;4663;49.120;9.730;2023-11-21T12:47:01;97776.94;;;10.94;81.07
19751;BME280;4663;49.120;9.730;2023-11-21T12:49:26;97761.13;;;11.41;79.23
19751;BME280;4663;49.120;9.730;2023-11-21T12:51:53;97777.91;;;11.43;79.81
19751;BME280;4663;49.120;9.730;2023-11-21T12:54:19;97777.97;;;10.76;79.88
19751;BME280;4663;49.120;9.730;2023-11-21T12:56:45;97775.56;;;11.40;79.52
19751;BME280;4663;49.120;9.730;2023-11-21T12:59:14;97783.81;;;11.22;79.24
19751;BME280;4663;49.120;9.730;2023-11-21T13:01:42;97781.81;;;10.82;80.23
19751;BME280;4663;49.120;9.730;2023-11-21T13:04:08;97773.75;;;11.07;79.03
19751;BME280;4663;49.120;9.730;2023-11-21T13:06:36;97768.50;;;11.47;80.33
19751;BME280;4663;49.120;9.730;2023-11-21T13:09:08;97769.84;;;11.35;77.82
19751;BME280;4663;49.120;9.730;2023-11-21T13:11:38;97781.03;;;12.12;77.64
19751;BME280;4663;49.120;9.730;2023-11-21T13:14:06;97783.84;;;11.70;78.02
19751;BME280;4663;49.120;9.730;2023-11-21T13:16:31;97787.56;;;11.69;77.80
19751;BME280;4663;49.120;9.730;2023-11-21T13:18:57;97778.72;;;12.00;77.24
19751;BME280;4663;49.120;9.730;2023-11-21T13:21:23;97787.56;;;11.77;78.58
19751;BME280;4663;49.120;9.730;2023-11-21T13:23:48;97782.28;;;12.01;77.48